Brigadeiro Lysias Rodrigues Airport
SBPJ : rendu visible

Aérodrome :











RETROUVEZ-NOUS SUR...

 
LOGIN :

S'inscrire | Disclaimer

   EN    FR    IT 

 









Légende :    VFR   VFR Marginal   IFR   IFR Intensif   IFR Très Intensif
Visi : 
Plafond : 
>= 8 km
>= 3000ft
5 à 8 km
1000 à 3000 ft
1500m à 5 km
500 à 1000 ft
800 à 1500m
200 à 500 ft
< 800m
< 200 ft
Symboles :   Orages  Brouillard  Fortes neiges  Fortes précipitations  Vent > 20 kt






- Altitude de l'aérodrome : 774 ft
- Code IATA : PMW


SBPJ - Brigadeiro Lysias Rodrigues

DERNIER METAR :
  • 312200Z 01008KT 3000 TSRA SCT010 FEW025CB BKN035 OVC080 23/22 Q1013

METARs EXPIRÉS :
  • 312100Z 12007KT 5000 TSRA SCT015 FEW025CB BKN045 27/23 Q1011
  • 312000Z 14012KT 6000 TSRA SCT016 FEW026CB FEW027TCU SCT045 28/23 Q1010

TAF TAF SBPJ
Valide du 31 à 18h jusqu'au 01 à 18h UTC


311500Z 3118/0118 18015KT 8000 TS BKN017 FEW030CB TN24/0109Z TX31/0116Z
PROB30 3118/3121 18015G25KT 4000 TSRA SCT012 FEW025CB
BECMG 3122/3124 15010KT NSW BKN017
BECMG 0101/0103 10010KT SCT017
BECMG 0110/0112 32010KT
BECMG 0113/0115 32015KT TS BKN017 FEW030CB
PROB30 0115/0118 18015G25KT 4000 TSRA BKN012 FEW025CB RMK PGS
FIR SBBS / Amérique du Sud



MET'MAP, la Météo Aéronautique d'un coup d'oeil ! - Copyright ORBIFLY Décembre 2007 - Disclaimer

ORBIFLY MET'MAP TEAM :

Programmation & Développement : Alexandra Zaïnal
Sur une idée originale de : Baudouin d'Aumeries
Assistance à la programmation : Marc-Olivier Méhu
Soutien technique & logistique : Manuel Goepfert

Contact : metmap@orbifly.com




SOURCES & CREDITS :

   NOAA       Earth
Advisory